createdAt,value
2023-05-08T00:01:11.681Z,7.10
2023-05-08T00:03:39.215Z,7.12
2023-05-08T00:06:06.952Z,7.04
2023-05-08T00:08:34.402Z,7.17
2023-05-08T00:11:01.664Z,7.28
2023-05-08T00:13:28.855Z,7.18
2023-05-08T00:15:56.317Z,7.30
2023-05-08T00:18:23.594Z,7.10
2023-05-08T00:20:50.856Z,7.26
2023-05-08T00:23:18.021Z,7.41
2023-05-08T00:25:45.499Z,7.21
2023-05-08T00:28:12.725Z,7.10
2023-05-08T00:30:40.070Z,7.28
2023-05-08T00:33:07.688Z,7.35
2023-05-08T00:35:35.048Z,7.30
2023-05-08T00:38:02.334Z,7.19
2023-05-08T00:40:29.709Z,7.07
2023-05-08T00:42:57.018Z,7.28
2023-05-08T00:45:24.365Z,7.26
2023-05-08T00:47:51.689Z,7.31
2023-05-08T00:50:19.538Z,7.37
2023-05-08T00:52:46.972Z,7.31
2023-05-08T00:55:14.540Z,6.97
2023-05-08T00:57:41.930Z,6.88
2023-05-08T01:00:10.730Z,7.00
2023-05-08T01:02:39.494Z,7.00
2023-05-08T01:05:07.728Z,7.25
2023-05-08T01:07:35.139Z,7.22
2023-05-08T01:10:02.479Z,7.05
2023-05-08T01:13:14.669Z,7.06
2023-05-08T01:15:59.093Z,7.07
2023-05-08T01:18:40.370Z,7.01
2023-05-08T01:21:28.741Z,6.80
2023-05-08T01:24:33.119Z,6.94
2023-05-08T01:27:29.976Z,7.05
2023-05-08T01:30:15.862Z,7.00
2023-05-08T01:32:55.546Z,7.09
2023-05-08T01:35:34.529Z,7.20
2023-05-08T01:38:28.245Z,7.16
2023-05-08T01:41:08.834Z,7.28
2023-05-08T01:43:42.678Z,7.03
2023-05-08T01:46:19.677Z,6.95
2023-05-08T01:49:23.118Z,6.88
2023-05-08T01:52:03.698Z,6.79
2023-05-08T01:54:41.254Z,6.79
2023-05-08T01:57:11.062Z,6.96
2023-05-08T01:59:41.603Z,6.81
2023-05-08T02:02:11.433Z,6.78
2023-05-08T02:04:41.345Z,6.97
2023-05-08T02:07:08.752Z,6.92
2023-05-08T02:09:37.896Z,6.78
2023-05-08T02:12:08.392Z,6.85
2023-05-08T02:14:38.340Z,6.71
2023-05-08T02:17:09.433Z,6.94
2023-05-08T02:19:39.905Z,6.77
2023-05-08T02:22:10.100Z,6.84
2023-05-08T02:24:38.605Z,6.95
2023-05-08T02:27:09.983Z,6.86
2023-05-08T02:29:38.359Z,6.74
2023-05-08T02:32:08.807Z,6.67
2023-05-08T02:34:40.897Z,6.92
2023-05-08T02:37:14.036Z,6.98
2023-05-08T02:39:44.003Z,6.82
2023-05-08T02:42:11.700Z,7.02
2023-05-08T02:44:39.234Z,7.12
2023-05-08T02:47:35.848Z,7.16
2023-05-08T02:50:17.904Z,6.96
2023-05-08T02:52:50.989Z,6.80
2023-05-08T02:55:34.430Z,6.94
2023-05-08T02:58:25.073Z,6.96
2023-05-08T03:01:40.912Z,6.80
2023-05-08T03:04:17.964Z,6.61
2023-05-08T03:06:47.849Z,6.83
2023-05-08T03:09:26.314Z,6.88
2023-05-08T03:12:14.421Z,6.99
2023-05-08T03:15:09.318Z,6.93
2023-05-08T03:17:38.679Z,6.97
2023-05-08T03:20:10.349Z,7.04
2023-05-08T03:22:38.985Z,7.00
2023-05-08T03:25:10.779Z,6.93
2023-05-08T03:27:41.313Z,6.86
2023-05-08T03:30:12.078Z,6.92
2023-05-08T03:32:44.650Z,6.89
2023-05-08T03:35:12.217Z,6.91
2023-05-08T03:37:40.657Z,6.93
2023-05-08T03:40:09.480Z,6.69
2023-05-08T03:42:37.411Z,6.65
2023-05-08T03:45:06.726Z,6.70
2023-05-08T03:47:37.127Z,6.79
2023-05-08T03:50:05.267Z,6.80
2023-05-08T03:52:33.288Z,6.71
2023-05-08T03:55:01.746Z,6.70
2023-05-08T03:57:41.989Z,6.87
2023-05-08T04:00:33.022Z,6.90
2023-05-08T04:03:23.132Z,6.83
2023-05-08T04:06:06.462Z,6.99
2023-05-08T04:08:55.504Z,6.82
2023-05-08T04:11:38.441Z,6.92
2023-05-08T04:14:08.507Z,7.12
2023-05-08T04:16:43.783Z,7.13
2023-05-08T04:19:18.285Z,6.62
2023-05-08T04:21:48.251Z,6.66
2023-05-08T04:24:17.413Z,6.70
2023-05-08T04:26:46.373Z,7.01
2023-05-08T04:29:16.465Z,6.68
2023-05-08T04:31:44.380Z,6.84
2023-05-08T04:34:12.402Z,6.56
2023-05-08T04:36:40.352Z,6.62
2023-05-08T04:39:08.540Z,6.84
2023-05-08T04:41:35.879Z,6.56
2023-05-08T04:44:05.417Z,6.82
2023-05-08T04:46:32.848Z,7.25
2023-05-08T04:49:00.199Z,7.31
2023-05-08T04:51:29.593Z,7.18
2023-05-08T04:53:57.033Z,6.98
2023-05-08T04:56:24.307Z,7.43
2023-05-08T04:58:51.803Z,7.52
2023-05-08T05:01:19.433Z,7.48
2023-05-08T05:03:47.235Z,7.40
2023-05-08T05:06:14.639Z,7.22
2023-05-08T05:08:41.833Z,7.27
2023-05-08T05:11:09.245Z,7.40
2023-05-08T05:13:36.531Z,7.41
2023-05-08T05:16:03.903Z,7.47
2023-05-08T05:18:31.309Z,8.61
2023-05-08T05:20:59.405Z,10.05
2023-05-08T05:23:27.418Z,11.27
2023-05-08T05:25:54.684Z,12.58
2023-05-08T05:28:22.180Z,11.59
2023-05-08T05:30:49.590Z,10.28
2023-05-08T05:33:17.631Z,11.78
2023-05-08T05:35:45.131Z,12.13
2023-05-08T05:38:12.731Z,13.61
2023-05-08T05:40:40.178Z,14.53
2023-05-08T05:43:07.404Z,13.82
2023-05-08T05:45:34.954Z,10.67
2023-05-08T05:48:02.772Z,9.75
2023-05-08T05:50:31.614Z,8.92
2023-05-08T05:52:59.606Z,8.79
2023-05-08T05:55:27.703Z,9.07
2023-05-08T05:57:55.692Z,9.91
2023-05-08T06:00:23.143Z,9.83
2023-05-08T06:02:55.162Z,9.22
2023-05-08T06:05:23.312Z,9.10
2023-05-08T06:07:51.647Z,9.91
2023-05-08T06:10:20.060Z,9.39
2023-05-08T06:12:47.449Z,10.82
2023-05-08T06:15:16.084Z,14.24
2023-05-08T06:17:45.885Z,15.27
2023-05-08T06:20:13.828Z,15.86
2023-05-08T06:22:41.880Z,15.77
2023-05-08T06:25:10.236Z,15.18
2023-05-08T06:27:38.046Z,15.83
2023-05-08T06:30:08.696Z,17.13
2023-05-08T06:32:36.784Z,17.26
2023-05-08T06:35:04.485Z,17.78
2023-05-08T06:37:31.830Z,18.79
2023-05-08T06:40:10.958Z,18.63
2023-05-08T06:42:41.864Z,19.71
2023-05-08T06:45:10.414Z,19.69
2023-05-08T06:47:38.404Z,17.88
2023-05-08T06:50:06.936Z,18.54
2023-05-08T06:52:34.267Z,16.90
2023-05-08T06:55:01.626Z,15.24
2023-05-08T06:57:30.354Z,14.06
2023-05-08T06:59:57.687Z,13.73
2023-05-08T07:02:25.034Z,13.77
2023-05-08T07:04:52.461Z,14.77
2023-05-08T07:07:19.720Z,14.72
2023-05-08T07:09:47.025Z,16.33
2023-05-08T07:12:16.671Z,18.01
2023-05-08T07:14:44.129Z,15.67
2023-05-08T07:17:11.486Z,13.84
2023-05-08T07:19:39.197Z,13.76
2023-05-08T07:22:06.750Z,14.25
2023-05-08T07:24:34.254Z,13.72
2023-05-08T07:27:01.548Z,14.34
2023-05-08T07:29:29.124Z,14.46
2023-05-08T07:31:56.417Z,13.33
2023-05-08T07:34:23.733Z,13.33
2023-05-08T07:36:50.919Z,13.85
2023-05-08T07:39:18.217Z,15.90
2023-05-08T07:41:46.763Z,16.48
2023-05-08T07:44:16.108Z,18.87
2023-05-08T07:46:43.360Z,20.41
2023-05-08T07:49:10.519Z,20.65
2023-05-08T07:51:37.829Z,22.13
2023-05-08T07:54:05.191Z,22.31
2023-05-08T07:56:32.558Z,22.16
2023-05-08T07:58:59.742Z,21.67
2023-05-08T08:01:27.502Z,22.27
2023-05-08T08:03:54.835Z,24.51
2023-05-08T08:06:22.121Z,23.60
2023-05-08T08:08:49.485Z,19.77
2023-05-08T08:11:16.722Z,21.02
2023-05-08T08:13:44.060Z,21.29
2023-05-08T08:16:11.353Z,22.76
2023-05-08T08:18:38.762Z,22.89
2023-05-08T08:21:07.658Z,23.85
2023-05-08T08:23:35.185Z,24.00
2023-05-08T08:26:02.521Z,23.61
2023-05-08T08:28:29.933Z,21.45
2023-05-08T08:30:57.421Z,20.55
2023-05-08T08:33:24.666Z,21.11
2023-05-08T08:35:51.988Z,22.94
2023-05-08T08:38:19.322Z,21.15
2023-05-08T08:40:46.654Z,21.17
2023-05-08T08:43:14.099Z,24.08
2023-05-08T08:45:41.385Z,23.35
2023-05-08T08:48:12.485Z,24.33
2023-05-08T08:50:47.578Z,20.86
2023-05-08T08:53:29.595Z,21.76
2023-05-08T08:56:01.029Z,20.80
2023-05-08T08:58:39.211Z,20.56
2023-05-08T09:01:09.732Z,20.15
2023-05-08T09:03:37.663Z,19.95
2023-05-08T09:06:05.603Z,21.54
2023-05-08T09:08:32.977Z,22.79
2023-05-08T09:11:02.763Z,23.66
2023-05-08T09:13:30.592Z,24.43
2023-05-08T09:16:01.420Z,23.13
2023-05-08T09:18:28.835Z,23.27
2023-05-08T09:20:56.619Z,22.06
2023-05-08T09:23:24.050Z,22.69
2023-05-08T09:25:51.466Z,23.43
2023-05-08T09:28:26.143Z,22.26
2023-05-08T09:31:01.765Z,21.19
2023-05-08T09:33:30.204Z,22.53
2023-05-08T09:35:58.189Z,22.59
2023-05-08T09:38:37.177Z,22.29
2023-05-08T09:41:15.617Z,21.04
2023-05-08T09:43:45.287Z,21.54
2023-05-08T09:46:24.563Z,21.00
2023-05-08T09:48:57.584Z,19.99
2023-05-08T09:51:32.078Z,18.96
2023-05-08T09:54:00.625Z,19.44
2023-05-08T09:56:39.556Z,20.07
2023-05-08T09:59:27.916Z,18.55
2023-05-08T10:01:57.431Z,18.96
2023-05-08T10:04:35.280Z,19.65
2023-05-08T10:07:04.007Z,19.99
2023-05-08T10:09:42.462Z,20.67
2023-05-08T10:12:14.808Z,20.36
2023-05-08T10:14:44.098Z,20.55
2023-05-08T10:17:14.521Z,21.90
2023-05-08T10:19:45.657Z,20.39
2023-05-08T10:22:15.857Z,18.86
2023-05-08T10:24:44.255Z,19.68
2023-05-08T10:27:31.994Z,20.48
2023-05-08T10:30:06.054Z,20.16
2023-05-08T10:32:43.401Z,19.42
2023-05-08T10:35:12.341Z,19.05
2023-05-08T10:37:42.420Z,19.71
2023-05-08T10:40:11.172Z,17.86
2023-05-08T10:42:38.932Z,18.67
2023-05-08T10:45:07.889Z,18.54
2023-05-08T10:48:11.527Z,18.74
2023-05-08T10:51:50.643Z,18.75
2023-05-08T10:55:02.329Z,17.37
2023-05-08T10:57:29.631Z,17.90
2023-05-08T10:59:57.054Z,17.66
2023-05-08T11:02:32.909Z,18.55
2023-05-08T11:05:16.965Z,17.57
2023-05-08T11:07:58.668Z,17.81
2023-05-08T11:10:33.331Z,18.30
2023-05-08T11:13:01.402Z,17.90
2023-05-08T11:15:40.098Z,18.63
2023-05-08T11:18:10.183Z,16.95
2023-05-08T11:21:08.965Z,16.13
2023-05-08T11:23:37.221Z,16.36
2023-05-08T11:26:16.631Z,16.26
2023-05-08T11:28:59.640Z,15.03
2023-05-08T11:31:50.295Z,15.49
2023-05-08T11:34:42.799Z,14.88
2023-05-08T11:37:18.865Z,15.37
2023-05-08T11:39:47.529Z,15.30
2023-05-08T11:42:27.295Z,14.17
2023-05-08T11:45:08.118Z,14.36
2023-05-08T11:47:45.412Z,14.71
2023-05-08T11:50:14.297Z,14.08
2023-05-08T11:52:43.482Z,14.14
2023-05-08T11:55:13.085Z,14.11
2023-05-08T11:57:41.321Z,14.47
2023-05-08T12:00:11.707Z,13.31
2023-05-08T12:02:45.911Z,13.46
2023-05-08T12:05:13.455Z,13.78
2023-05-08T12:07:47.522Z,13.79
2023-05-08T12:10:16.877Z,13.16
2023-05-08T12:12:45.694Z,13.09
2023-05-08T12:15:16.146Z,13.74
2023-05-08T12:17:43.571Z,14.04
2023-05-08T12:20:17.593Z,13.66
2023-05-08T12:22:53.264Z,14.17
2023-05-08T12:25:20.772Z,14.19
2023-05-08T12:27:48.416Z,14.01
2023-05-08T12:30:16.678Z,14.13
2023-05-08T12:32:44.749Z,13.85
2023-05-08T12:35:14.230Z,13.44
2023-05-08T12:37:41.673Z,13.37
2023-05-08T12:40:25.542Z,13.60
2023-05-08T12:42:53.376Z,13.99
2023-05-08T12:45:31.567Z,13.78
2023-05-08T12:48:02.976Z,13.37
2023-05-08T12:50:34.803Z,13.54
2023-05-08T12:53:07.227Z,13.79
2023-05-08T12:55:37.132Z,13.96
2023-05-08T12:58:15.128Z,14.17
2023-05-08T13:00:46.540Z,13.65
2023-05-08T13:03:21.737Z,13.77
2023-05-08T13:05:48.955Z,13.98
2023-05-08T13:08:16.033Z,14.07
2023-05-08T13:10:54.369Z,13.74
2023-05-08T13:13:24.043Z,13.29
2023-05-08T13:15:52.562Z,13.34
2023-05-08T13:18:21.146Z,13.81
2023-05-08T13:20:48.631Z,13.76
2023-05-08T13:23:16.061Z,13.53
2023-05-08T13:25:43.279Z,13.31
2023-05-08T13:28:10.974Z,12.92
2023-05-08T13:30:38.736Z,13.58
2023-05-08T13:33:06.393Z,13.49
2023-05-08T13:35:34.065Z,13.57
2023-05-08T13:38:01.511Z,13.35
2023-05-08T13:40:28.881Z,13.18
2023-05-08T13:42:56.074Z,13.48
2023-05-08T13:45:23.343Z,13.33
2023-05-08T13:47:51.050Z,13.50
2023-05-08T13:50:22.372Z,13.51
2023-05-08T13:52:52.210Z,13.02
2023-05-08T13:55:22.987Z,12.96
2023-05-08T13:57:50.876Z,12.74
2023-05-08T14:00:18.513Z,12.99
2023-05-08T14:02:45.969Z,13.37
2023-05-08T14:05:13.729Z,13.17
2023-05-08T14:07:41.162Z,13.22
2023-05-08T14:10:08.518Z,13.13
2023-05-08T14:12:36.323Z,13.12
2023-05-08T14:15:05.294Z,12.54
2023-05-08T14:17:32.653Z,12.64
2023-05-08T14:20:00.307Z,12.78
2023-05-08T14:22:27.758Z,11.96
2023-05-08T14:24:55.366Z,12.19
2023-05-08T14:27:22.630Z,12.52
2023-05-08T14:29:49.822Z,12.55
2023-05-08T14:32:17.008Z,12.91
2023-05-08T14:34:44.665Z,12.53
2023-05-08T14:37:13.240Z,12.91
2023-05-08T14:39:40.470Z,12.40
2023-05-08T14:44:37.840Z,12.36
2023-05-08T14:47:05.062Z,12.31
2023-05-08T14:49:37.929Z,12.63
2023-05-08T14:52:07.062Z,12.68
2023-05-08T14:54:34.489Z,12.27
2023-05-08T14:57:01.846Z,12.23
2023-05-08T14:59:28.954Z,11.96
2023-05-08T15:01:56.285Z,12.08
2023-05-08T15:04:23.686Z,11.91
2023-05-08T15:06:51.014Z,11.88
2023-05-08T15:09:18.195Z,12.06
2023-05-08T15:11:45.243Z,12.16
2023-05-08T15:14:12.466Z,12.19
2023-05-08T15:16:39.855Z,12.01
2023-05-08T15:19:09.375Z,11.96
2023-05-08T15:21:36.728Z,12.03
2023-05-08T15:24:04.082Z,12.01
2023-05-08T15:26:31.190Z,11.99
2023-05-08T15:28:58.338Z,11.89
2023-05-08T15:31:25.600Z,11.83
2023-05-08T15:33:52.770Z,11.73
2023-05-08T15:36:19.895Z,11.44
2023-05-08T15:38:49.151Z,11.50
2023-05-08T15:41:16.419Z,11.44
2023-05-08T15:43:45.275Z,11.53
2023-05-08T15:46:12.846Z,11.38
2023-05-08T15:48:40.068Z,11.29
2023-05-08T15:51:07.308Z,11.21
2023-05-08T15:53:35.371Z,11.06
2023-05-08T15:56:05.677Z,11.10
2023-05-08T15:58:32.839Z,11.11
2023-05-08T16:01:00.001Z,11.00
2023-05-08T16:03:27.426Z,10.87
2023-05-08T16:05:54.548Z,11.18
2023-05-08T16:08:21.803Z,10.98
2023-05-08T16:10:49.380Z,11.07
2023-05-08T16:13:16.727Z,11.10
2023-05-08T16:15:44.043Z,11.08
2023-05-08T16:18:11.558Z,11.09
2023-05-08T16:20:41.671Z,10.91
2023-05-08T16:23:08.808Z,10.99
2023-05-08T16:25:36.047Z,11.02
2023-05-08T16:28:03.519Z,11.04
2023-05-08T16:30:30.891Z,10.83
2023-05-08T16:32:58.069Z,10.59
2023-05-08T16:35:25.459Z,10.52
2023-05-08T16:37:52.806Z,10.67
2023-05-08T16:40:20.121Z,10.46
2023-05-08T16:42:47.379Z,10.43
2023-05-08T16:45:14.750Z,10.53
2023-05-08T16:47:42.047Z,10.55
2023-05-08T16:50:09.574Z,10.54
2023-05-08T16:52:36.783Z,10.50
2023-05-08T16:55:04.106Z,10.37
2023-05-08T16:57:31.329Z,10.50
2023-05-08T16:59:58.465Z,10.53
2023-05-08T17:02:25.822Z,10.33
2023-05-08T17:04:53.021Z,10.24
2023-05-08T17:07:20.182Z,10.19
2023-05-08T17:09:52.975Z,10.22
2023-05-08T17:12:20.218Z,10.11
2023-05-08T17:14:47.646Z,10.14
2023-05-08T17:17:14.927Z,10.13
2023-05-08T17:19:44.922Z,10.06
2023-05-08T17:22:13.371Z,10.04
2023-05-08T17:24:40.599Z,10.04
2023-05-08T17:27:08.890Z,10.02
2023-05-08T17:29:36.336Z,10.01
2023-05-08T17:32:03.611Z,9.87
2023-05-08T17:34:31.161Z,9.91
2023-05-08T17:36:58.460Z,9.97
2023-05-08T17:39:25.794Z,9.75
2023-05-08T17:41:54.267Z,9.68
2023-05-08T17:44:21.468Z,9.68
2023-05-08T17:46:48.712Z,9.61
2023-05-08T17:49:19.306Z,9.66
2023-05-08T17:51:47.033Z,9.58
2023-05-08T17:54:14.401Z,9.59
2023-05-08T17:56:41.695Z,9.62
2023-05-08T17:59:08.921Z,9.66
2023-05-08T18:01:36.120Z,9.67
2023-05-08T18:04:03.256Z,9.55
2023-05-08T18:06:30.339Z,9.45
2023-05-08T18:08:57.402Z,9.39
2023-05-08T18:11:26.372Z,9.30
2023-05-08T18:13:53.895Z,9.23
2023-05-08T18:16:21.953Z,9.26
2023-05-08T18:18:49.968Z,9.33
2023-05-08T18:21:17.125Z,9.31
2023-05-08T18:23:44.386Z,9.23
2023-05-08T18:26:15.989Z,9.18
2023-05-08T18:28:44.374Z,9.43
2023-05-08T18:31:12.302Z,9.36
2023-05-08T18:33:39.710Z,9.31
2023-05-08T18:36:07.438Z,9.27
2023-05-08T18:38:35.358Z,9.26
2023-05-08T18:41:03.747Z,9.26
2023-05-08T18:43:31.061Z,9.18
2023-05-08T18:46:00.500Z,9.09
2023-05-08T18:48:27.963Z,9.08
2023-05-08T18:50:58.623Z,9.13
2023-05-08T18:53:26.226Z,8.95
2023-05-08T18:55:53.428Z,8.87
2023-05-08T18:58:20.673Z,8.88
2023-05-08T19:00:48.015Z,9.00
2023-05-08T19:03:15.246Z,8.91
2023-05-08T19:05:42.455Z,8.92
2023-05-08T19:08:09.683Z,8.73
2023-05-08T19:10:36.849Z,8.64
2023-05-08T19:13:04.184Z,8.48
2023-05-08T19:15:31.492Z,8.47
2023-05-08T19:17:58.778Z,8.36
2023-05-08T19:20:25.944Z,8.37
2023-05-08T19:22:53.341Z,8.36
2023-05-08T19:25:20.670Z,8.29
2023-05-08T19:27:48.313Z,8.11
2023-05-08T19:30:16.105Z,8.20
2023-05-08T19:32:43.504Z,8.21
2023-05-08T19:35:10.870Z,8.26
2023-05-08T19:37:38.156Z,8.29
2023-05-08T19:40:06.522Z,8.39
2023-05-08T19:42:33.841Z,8.38
2023-05-08T19:45:01.382Z,8.48
2023-05-08T19:47:28.586Z,8.12
2023-05-08T19:49:55.879Z,8.10
2023-05-08T19:52:22.940Z,7.98
2023-05-08T19:54:50.196Z,8.01
2023-05-08T19:57:17.640Z,7.93
2023-05-08T19:59:45.011Z,7.94
2023-05-08T20:02:12.272Z,7.99
2023-05-08T20:04:54.383Z,7.71
2023-05-08T20:07:26.784Z,7.65
2023-05-08T20:09:53.964Z,7.48
2023-05-08T20:12:21.126Z,7.56
2023-05-08T20:14:48.387Z,7.54
2023-05-08T20:17:15.981Z,7.56
2023-05-08T20:19:43.238Z,7.47
2023-05-08T20:22:11.125Z,7.46
2023-05-08T20:24:38.424Z,7.39
2023-05-08T20:27:05.578Z,7.28
2023-05-08T20:29:32.784Z,7.10
2023-05-08T20:32:00.017Z,7.23
2023-05-08T20:34:27.274Z,7.07
2023-05-08T20:36:56.303Z,7.00
2023-05-08T20:39:23.756Z,7.01
2023-05-08T20:41:50.897Z,6.84
2023-05-08T20:44:19.364Z,6.76
2023-05-08T20:46:46.586Z,6.84
2023-05-08T20:49:13.987Z,6.65
2023-05-08T20:51:41.296Z,6.79
2023-05-08T20:54:08.925Z,6.78
2023-05-08T20:56:36.571Z,6.75
2023-05-08T20:59:03.816Z,6.74
2023-05-08T21:01:31.128Z,6.76
2023-05-08T21:03:58.313Z,6.66
2023-05-08T21:06:25.581Z,6.71
2023-05-08T21:08:52.827Z,6.74
2023-05-08T21:11:19.993Z,6.77
2023-05-08T21:13:47.244Z,6.82
2023-05-08T21:16:14.454Z,6.73
2023-05-08T21:18:41.481Z,6.85
2023-05-08T21:21:19.904Z,6.71
2023-05-08T21:23:47.048Z,6.74
2023-05-08T21:26:14.416Z,6.80
2023-05-08T21:28:41.788Z,6.71
2023-05-08T21:31:09.023Z,6.76
2023-05-08T21:33:36.578Z,6.78
2023-05-08T21:36:03.915Z,6.93
2023-05-08T21:38:31.164Z,6.89
2023-05-08T21:41:05.341Z,6.82
2023-05-08T21:43:32.465Z,6.83
2023-05-08T21:45:59.990Z,6.80
2023-05-08T21:48:27.256Z,6.81
2023-05-08T21:50:54.324Z,6.71
2023-05-08T21:53:21.448Z,6.91
2023-05-08T21:55:49.278Z,7.01
2023-05-08T21:58:16.410Z,6.90
2023-05-08T22:00:43.511Z,6.87
2023-05-08T22:03:10.803Z,6.94
2023-05-08T22:05:38.032Z,6.92
2023-05-08T22:08:05.431Z,6.75
2023-05-08T22:10:32.575Z,6.76
2023-05-08T22:13:01.507Z,6.75
2023-05-08T22:15:30.559Z,6.54
2023-05-08T22:17:58.771Z,6.36
2023-05-08T22:20:25.957Z,6.30
2023-05-08T22:22:53.291Z,6.35
2023-05-08T22:25:21.991Z,6.36
2023-05-08T22:27:49.284Z,6.38
2023-05-08T22:30:16.425Z,6.52
2023-05-08T22:32:43.693Z,6.43
2023-05-08T22:35:10.971Z,6.43
2023-05-08T22:37:38.099Z,6.37
2023-05-08T22:40:05.824Z,6.35
2023-05-08T22:42:32.909Z,6.43
2023-05-08T22:45:00.000Z,6.33
2023-05-08T22:47:28.096Z,6.21
2023-05-08T22:49:55.251Z,6.27
2023-05-08T22:52:22.292Z,6.29
2023-05-08T22:54:49.484Z,6.14
2023-05-08T22:57:16.636Z,6.08
2023-05-08T22:59:43.682Z,6.12
2023-05-08T23:02:10.915Z,5.93
2023-05-08T23:04:38.064Z,5.87
2023-05-08T23:07:05.299Z,5.74
2023-05-08T23:09:32.449Z,5.72
2023-05-08T23:11:59.509Z,5.73
2023-05-08T23:14:26.644Z,5.66
2023-05-08T23:16:53.670Z,5.51
2023-05-08T23:19:20.996Z,5.44
2023-05-08T23:21:48.093Z,5.33
2023-05-08T23:24:15.317Z,5.31
2023-05-08T23:26:42.402Z,5.23
2023-05-08T23:29:09.571Z,5.31
2023-05-08T23:31:36.741Z,5.26
2023-05-08T23:34:04.030Z,5.21
2023-05-08T23:36:32.178Z,5.30
2023-05-08T23:38:59.321Z,5.24
2023-05-08T23:41:26.395Z,5.19
2023-05-08T23:43:53.430Z,5.26
2023-05-08T23:46:20.489Z,5.19
2023-05-08T23:48:47.562Z,5.26
2023-05-08T23:51:14.654Z,5.33
2023-05-08T23:53:42.308Z,5.29
2023-05-08T23:56:09.393Z,5.29
2023-05-08T23:58:36.449Z,5.35
